sensor_id;sensor_type;location;lat;lon;timestamp;P1;durP1;ratioP1;P2;durP2;ratioP2
83018;SDS011;72834;40.104;18.336;2024-02-26T00:00:40;11.10;;;3.45;;
83018;SDS011;72834;40.104;18.336;2024-02-26T00:03:07;11.38;;;3.65;;
83018;SDS011;72834;40.104;18.336;2024-02-26T00:05:33;9.63;;;3.53;;
83018;SDS011;72834;40.104;18.336;2024-02-26T00:07:59;9.02;;;3.15;;
83018;SDS011;72834;40.104;18.336;2024-02-26T00:10:25;8.63;;;4.00;;
83018;SDS011;72834;40.104;18.336;2024-02-26T00:12:52;13.23;;;2.70;;
83018;SDS011;72834;40.104;18.336;2024-02-26T00:15:18;16.00;;;2.90;;
83018;SDS011;72834;40.104;18.336;2024-02-26T00:17:44;12.02;;;3.25;;
83018;SDS011;72834;40.104;18.336;2024-02-26T00:20:10;8.70;;;2.15;;
83018;SDS011;72834;40.104;18.336;2024-02-26T00:22:37;11.93;;;2.55;;
83018;SDS011;72834;40.104;18.336;2024-02-26T00:25:04;10.43;;;2.47;;
83018;SDS011;72834;40.104;18.336;2024-02-26T00:27:30;9.05;;;2.67;;
83018;SDS011;72834;40.104;18.336;2024-02-26T00:29:56;7.32;;;2.47;;
83018;SDS011;72834;40.104;18.336;2024-02-26T00:32:23;12.38;;;2.75;;
83018;SDS011;72834;40.104;18.336;2024-02-26T00:34:49;15.70;;;2.65;;
83018;SDS011;72834;40.104;18.336;2024-02-26T00:37:16;9.32;;;2.08;;
83018;SDS011;72834;40.104;18.336;2024-02-26T00:39:42;10.80;;;3.28;;
83018;SDS011;72834;40.104;18.336;2024-02-26T00:42:08;9.57;;;2.88;;
83018;SDS011;72834;40.104;18.336;2024-02-26T00:44:34;9.68;;;2.72;;
83018;SDS011;72834;40.104;18.336;2024-02-26T00:47:00;12.80;;;2.83;;
83018;SDS011;72834;40.104;18.336;2024-02-26T00:49:27;10.57;;;3.03;;
83018;SDS011;72834;40.104;18.336;2024-02-26T00:51:53;8.40;;;3.35;;
83018;SDS011;72834;40.104;18.336;2024-02-26T00:54:20;16.75;;;3.65;;
83018;SDS011;72834;40.104;18.336;2024-02-26T00:56:46;13.55;;;4.03;;
83018;SDS011;72834;40.104;18.336;2024-02-26T00:59:12;15.52;;;3.67;;
83018;SDS011;72834;40.104;18.336;2024-02-26T01:01:38;13.73;;;3.47;;
83018;SDS011;72834;40.104;18.336;2024-02-26T01:04:05;7.43;;;3.10;;
83018;SDS011;72834;40.104;18.336;2024-02-26T01:06:31;12.48;;;3.63;;
83018;SDS011;72834;40.104;18.336;2024-02-26T01:08:57;11.48;;;3.47;;
83018;SDS011;72834;40.104;18.336;2024-02-26T01:11:23;8.35;;;3.35;;
83018;SDS011;72834;40.104;18.336;2024-02-26T01:13:50;8.05;;;3.05;;
83018;SDS011;72834;40.104;18.336;2024-02-26T01:16:22;13.80;;;3.25;;
83018;SDS011;72834;40.104;18.336;2024-02-26T01:18:49;9.85;;;2.72;;
83018;SDS011;72834;40.104;18.336;2024-02-26T01:21:15;7.55;;;2.65;;
83018;SDS011;72834;40.104;18.336;2024-02-26T01:23:42;9.50;;;2.97;;
83018;SDS011;72834;40.104;18.336;2024-02-26T01:26:08;16.63;;;3.60;;
83018;SDS011;72834;40.104;18.336;2024-02-26T01:28:34;9.45;;;4.43;;
83018;SDS011;72834;40.104;18.336;2024-02-26T01:31:00;6.25;;;2.75;;
83018;SDS011;72834;40.104;18.336;2024-02-26T01:33:27;10.05;;;2.80;;
83018;SDS011;72834;40.104;18.336;2024-02-26T01:35:53;10.68;;;2.88;;
83018;SDS011;72834;40.104;18.336;2024-02-26T01:38:19;9.00;;;3.00;;
83018;SDS011;72834;40.104;18.336;2024-02-26T01:40:45;10.00;;;3.70;;
83018;SDS011;72834;40.104;18.336;2024-02-26T01:43:11;14.73;;;3.45;;
83018;SDS011;72834;40.104;18.336;2024-02-26T01:45:38;7.65;;;2.83;;
83018;SDS011;72834;40.104;18.336;2024-02-26T01:48:04;8.40;;;2.47;;
83018;SDS011;72834;40.104;18.336;2024-02-26T01:50:31;8.77;;;3.35;;
83018;SDS011;72834;40.104;18.336;2024-02-26T01:53:00;13.48;;;3.78;;
83018;SDS011;72834;40.104;18.336;2024-02-26T01:55:27;11.77;;;3.92;;
83018;SDS011;72834;40.104;18.336;2024-02-26T01:57:53;10.85;;;3.60;;
83018;SDS011;72834;40.104;18.336;2024-02-26T02:03:24;14.02;;;3.53;;
83018;SDS011;72834;40.104;18.336;2024-02-26T02:05:50;9.25;;;3.85;;
83018;SDS011;72834;40.104;18.336;2024-02-26T02:08:17;12.32;;;3.83;;
83018;SDS011;72834;40.104;18.336;2024-02-26T02:10:44;16.10;;;4.15;;
83018;SDS011;72834;40.104;18.336;2024-02-26T02:13:13;8.77;;;4.07;;
83018;SDS011;72834;40.104;18.336;2024-02-26T02:15:39;7.35;;;3.30;;
83018;SDS011;72834;40.104;18.336;2024-02-26T02:18:06;10.80;;;3.45;;
83018;SDS011;72834;40.104;18.336;2024-02-26T02:20:32;8.00;;;3.38;;
83018;SDS011;72834;40.104;18.336;2024-02-26T02:22:59;10.60;;;3.40;;
83018;SDS011;72834;40.104;18.336;2024-02-26T02:25:26;9.80;;;3.60;;
83018;SDS011;72834;40.104;18.336;2024-02-26T02:27:53;9.25;;;3.72;;
83018;SDS011;72834;40.104;18.336;2024-02-26T02:30:24;10.00;;;3.70;;
83018;SDS011;72834;40.104;18.336;2024-02-26T02:32:53;10.02;;;3.20;;
83018;SDS011;72834;40.104;18.336;2024-02-26T02:35:20;7.13;;;2.72;;
83018;SDS011;72834;40.104;18.336;2024-02-26T02:37:47;7.57;;;2.90;;
83018;SDS011;72834;40.104;18.336;2024-02-26T02:40:13;11.63;;;3.90;;
83018;SDS011;72834;40.104;18.336;2024-02-26T02:42:39;8.98;;;3.13;;
83018;SDS011;72834;40.104;18.336;2024-02-26T02:45:06;8.88;;;3.38;;
83018;SDS011;72834;40.104;18.336;2024-02-26T02:47:35;9.25;;;3.30;;
83018;SDS011;72834;40.104;18.336;2024-02-26T02:50:03;9.20;;;3.53;;
83018;SDS011;72834;40.104;18.336;2024-02-26T02:52:30;7.47;;;3.30;;
83018;SDS011;72834;40.104;18.336;2024-02-26T02:54:56;6.63;;;2.70;;
83018;SDS011;72834;40.104;18.336;2024-02-26T02:57:23;11.45;;;3.22;;
83018;SDS011;72834;40.104;18.336;2024-02-26T02:59:49;7.63;;;3.28;;
83018;SDS011;72834;40.104;18.336;2024-02-26T03:02:16;12.43;;;3.50;;
83018;SDS011;72834;40.104;18.336;2024-02-26T03:04:42;10.60;;;3.35;;
83018;SDS011;72834;40.104;18.336;2024-02-26T03:07:08;11.85;;;3.40;;
83018;SDS011;72834;40.104;18.336;2024-02-26T03:09:36;8.45;;;3.05;;
83018;SDS011;72834;40.104;18.336;2024-02-26T03:12:02;12.07;;;3.17;;
83018;SDS011;72834;40.104;18.336;2024-02-26T03:14:28;9.70;;;3.40;;
83018;SDS011;72834;40.104;18.336;2024-02-26T03:16:55;10.73;;;3.78;;
83018;SDS011;72834;40.104;18.336;2024-02-26T03:19:21;8.90;;;3.70;;
83018;SDS011;72834;40.104;18.336;2024-02-26T03:21:48;9.98;;;4.25;;
83018;SDS011;72834;40.104;18.336;2024-02-26T03:24:14;11.90;;;3.47;;
83018;SDS011;72834;40.104;18.336;2024-02-26T03:26:41;7.85;;;2.83;;
83018;SDS011;72834;40.104;18.336;2024-02-26T03:29:07;9.15;;;2.92;;
83018;SDS011;72834;40.104;18.336;2024-02-26T03:31:33;9.02;;;2.90;;
83018;SDS011;72834;40.104;18.336;2024-02-26T03:34:00;8.93;;;2.83;;
83018;SDS011;72834;40.104;18.336;2024-02-26T03:36:26;11.63;;;3.30;;
83018;SDS011;72834;40.104;18.336;2024-02-26T03:38:52;7.00;;;2.72;;
83018;SDS011;72834;40.104;18.336;2024-02-26T03:41:18;8.63;;;2.83;;
83018;SDS011;72834;40.104;18.336;2024-02-26T03:43:45;10.35;;;4.05;;
83018;SDS011;72834;40.104;18.336;2024-02-26T03:46:11;7.78;;;2.65;;
83018;SDS011;72834;40.104;18.336;2024-02-26T03:48:40;11.23;;;2.97;;
83018;SDS011;72834;40.104;18.336;2024-02-26T03:51:08;9.98;;;3.40;;
83018;SDS011;72834;40.104;18.336;2024-02-26T03:53:38;10.88;;;3.30;;
83018;SDS011;72834;40.104;18.336;2024-02-26T03:56:04;10.55;;;2.70;;
83018;SDS011;72834;40.104;18.336;2024-02-26T03:58:31;8.73;;;2.13;;
83018;SDS011;72834;40.104;18.336;2024-02-26T04:00:58;9.90;;;2.92;;
83018;SDS011;72834;40.104;18.336;2024-02-26T04:03:25;12.02;;;3.50;;
83018;SDS011;72834;40.104;18.336;2024-02-26T04:05:52;9.82;;;2.85;;
83018;SDS011;72834;40.104;18.336;2024-02-26T04:08:18;10.60;;;2.70;;
83018;SDS011;72834;40.104;18.336;2024-02-26T04:10:44;10.38;;;3.20;;
83018;SDS011;72834;40.104;18.336;2024-02-26T04:13:11;9.88;;;3.47;;
83018;SDS011;72834;40.104;18.336;2024-02-26T04:15:37;5.95;;;1.98;;
83018;SDS011;72834;40.104;18.336;2024-02-26T04:18:03;13.27;;;2.47;;
83018;SDS011;72834;40.104;18.336;2024-02-26T04:20:29;8.55;;;2.20;;
83018;SDS011;72834;40.104;18.336;2024-02-26T04:22:55;8.60;;;2.42;;
83018;SDS011;72834;40.104;18.336;2024-02-26T04:25:22;7.13;;;2.53;;
83018;SDS011;72834;40.104;18.336;2024-02-26T04:27:48;5.35;;;2.10;;
83018;SDS011;72834;40.104;18.336;2024-02-26T04:30:14;7.85;;;2.72;;
83018;SDS011;72834;40.104;18.336;2024-02-26T04:32:42;7.45;;;2.53;;
83018;SDS011;72834;40.104;18.336;2024-02-26T04:35:08;12.13;;;3.08;;
83018;SDS011;72834;40.104;18.336;2024-02-26T04:37:35;8.20;;;3.17;;
83018;SDS011;72834;40.104;18.336;2024-02-26T04:40:01;7.55;;;2.13;;
83018;SDS011;72834;40.104;18.336;2024-02-26T04:42:28;13.45;;;2.10;;
83018;SDS011;72834;40.104;18.336;2024-02-26T04:44:54;5.65;;;2.20;;
83018;SDS011;72834;40.104;18.336;2024-02-26T04:47:21;9.88;;;2.40;;
83018;SDS011;72834;40.104;18.336;2024-02-26T04:49:48;7.43;;;2.63;;
83018;SDS011;72834;40.104;18.336;2024-02-26T04:52:15;8.35;;;2.13;;
83018;SDS011;72834;40.104;18.336;2024-02-26T04:54:42;7.65;;;1.85;;
83018;SDS011;72834;40.104;18.336;2024-02-26T04:57:08;7.55;;;2.38;;
83018;SDS011;72834;40.104;18.336;2024-02-26T04:59:34;12.13;;;2.20;;
83018;SDS011;72834;40.104;18.336;2024-02-26T05:02:00;8.98;;;1.83;;
83018;SDS011;72834;40.104;18.336;2024-02-26T05:04:27;7.05;;;1.83;;
83018;SDS011;72834;40.104;18.336;2024-02-26T05:06:53;8.93;;;2.50;;
83018;SDS011;72834;40.104;18.336;2024-02-26T05:09:19;7.68;;;2.63;;
83018;SDS011;72834;40.104;18.336;2024-02-26T05:11:45;8.20;;;2.10;;
83018;SDS011;72834;40.104;18.336;2024-02-26T05:14:12;14.20;;;4.43;;
83018;SDS011;72834;40.104;18.336;2024-02-26T05:16:38;8.20;;;2.30;;
83018;SDS011;72834;40.104;18.336;2024-02-26T05:19:04;4.45;;;2.17;;
83018;SDS011;72834;40.104;18.336;2024-02-26T05:21:31;4.65;;;1.83;;
83018;SDS011;72834;40.104;18.336;2024-02-26T05:23:57;5.18;;;2.00;;
83018;SDS011;72834;40.104;18.336;2024-02-26T05:26:24;4.32;;;2.05;;
83018;SDS011;72834;40.104;18.336;2024-02-26T05:28:50;9.13;;;2.25;;
83018;SDS011;72834;40.104;18.336;2024-02-26T05:31:17;4.18;;;1.88;;
83018;SDS011;72834;40.104;18.336;2024-02-26T05:33:44;10.73;;;2.47;;
83018;SDS011;72834;40.104;18.336;2024-02-26T05:36:17;7.53;;;2.95;;
83018;SDS011;72834;40.104;18.336;2024-02-26T05:38:44;9.18;;;2.78;;
83018;SDS011;72834;40.104;18.336;2024-02-26T05:41:12;6.75;;;1.90;;
83018;SDS011;72834;40.104;18.336;2024-02-26T05:43:38;5.35;;;1.95;;
83018;SDS011;72834;40.104;18.336;2024-02-26T05:46:04;10.02;;;2.28;;
83018;SDS011;72834;40.104;18.336;2024-02-26T05:48:31;6.10;;;2.28;;
83018;SDS011;72834;40.104;18.336;2024-02-26T05:50:57;6.97;;;1.60;;
83018;SDS011;72834;40.104;18.336;2024-02-26T05:53:23;7.38;;;2.22;;
83018;SDS011;72834;40.104;18.336;2024-02-26T05:55:50;5.15;;;2.13;;
83018;SDS011;72834;40.104;18.336;2024-02-26T05:58:16;7.70;;;1.90;;
83018;SDS011;72834;40.104;18.336;2024-02-26T06:00:43;6.38;;;1.90;;
83018;SDS011;72834;40.104;18.336;2024-02-26T06:03:09;5.97;;;2.20;;
83018;SDS011;72834;40.104;18.336;2024-02-26T06:05:36;7.32;;;2.55;;
83018;SDS011;72834;40.104;18.336;2024-02-26T06:08:02;4.35;;;1.77;;
83018;SDS011;72834;40.104;18.336;2024-02-26T06:10:28;7.00;;;2.33;;
83018;SDS011;72834;40.104;18.336;2024-02-26T06:12:55;8.70;;;2.35;;
83018;SDS011;72834;40.104;18.336;2024-02-26T06:15:21;9.65;;;2.92;;
83018;SDS011;72834;40.104;18.336;2024-02-26T06:17:47;8.50;;;3.80;;
83018;SDS011;72834;40.104;18.336;2024-02-26T06:20:13;5.03;;;1.95;;
83018;SDS011;72834;40.104;18.336;2024-02-26T06:22:40;11.50;;;2.33;;
83018;SDS011;72834;40.104;18.336;2024-02-26T06:25:07;13.05;;;2.40;;
83018;SDS011;72834;40.104;18.336;2024-02-26T06:27:34;10.52;;;3.28;;
83018;SDS011;72834;40.104;18.336;2024-02-26T06:30:00;6.45;;;2.10;;
83018;SDS011;72834;40.104;18.336;2024-02-26T06:32:27;7.63;;;2.30;;
83018;SDS011;72834;40.104;18.336;2024-02-26T06:34:54;5.63;;;2.33;;
83018;SDS011;72834;40.104;18.336;2024-02-26T06:37:22;5.15;;;1.85;;
83018;SDS011;72834;40.104;18.336;2024-02-26T06:39:48;4.40;;;1.75;;
83018;SDS011;72834;40.104;18.336;2024-02-26T06:42:14;5.72;;;2.00;;
83018;SDS011;72834;40.104;18.336;2024-02-26T06:44:40;8.10;;;2.28;;
83018;SDS011;72834;40.104;18.336;2024-02-26T06:47:07;7.78;;;1.73;;
83018;SDS011;72834;40.104;18.336;2024-02-26T06:49:33;8.73;;;1.95;;
83018;SDS011;72834;40.104;18.336;2024-02-26T06:51:59;6.75;;;1.85;;
83018;SDS011;72834;40.104;18.336;2024-02-26T06:54:25;4.18;;;1.25;;
83018;SDS011;72834;40.104;18.336;2024-02-26T06:56:52;2.58;;;1.30;;
83018;SDS011;72834;40.104;18.336;2024-02-26T06:59:18;4.90;;;1.27;;
83018;SDS011;72834;40.104;18.336;2024-02-26T07:01:46;4.47;;;1.50;;
83018;SDS011;72834;40.104;18.336;2024-02-26T07:04:12;2.95;;;1.50;;
83018;SDS011;72834;40.104;18.336;2024-02-26T07:06:38;8.35;;;1.42;;
83018;SDS011;72834;40.104;18.336;2024-02-26T07:09:05;3.67;;;1.30;;
83018;SDS011;72834;40.104;18.336;2024-02-26T07:11:31;4.78;;;1.48;;
83018;SDS011;72834;40.104;18.336;2024-02-26T07:13:57;3.88;;;1.20;;
83018;SDS011;72834;40.104;18.336;2024-02-26T07:16:23;9.95;;;1.88;;
83018;SDS011;72834;40.104;18.336;2024-02-26T07:18:50;5.30;;;1.50;;
83018;SDS011;72834;40.104;18.336;2024-02-26T07:21:16;3.55;;;1.40;;
83018;SDS011;72834;40.104;18.336;2024-02-26T07:23:42;6.40;;;1.70;;
83018;SDS011;72834;40.104;18.336;2024-02-26T07:26:09;7.90;;;1.60;;
83018;SDS011;72834;40.104;18.336;2024-02-26T07:28:37;9.45;;;1.67;;
83018;SDS011;72834;40.104;18.336;2024-02-26T07:31:03;4.63;;;1.50;;
83018;SDS011;72834;40.104;18.336;2024-02-26T07:33:30;2.78;;;1.20;;
83018;SDS011;72834;40.104;18.336;2024-02-26T07:35:56;4.03;;;1.40;;
83018;SDS011;72834;40.104;18.336;2024-02-26T07:38:22;5.43;;;1.67;;
83018;SDS011;72834;40.104;18.336;2024-02-26T07:40:49;4.35;;;1.10;;
83018;SDS011;72834;40.104;18.336;2024-02-26T07:43:15;4.43;;;1.70;;
83018;SDS011;72834;40.104;18.336;2024-02-26T07:45:42;4.40;;;1.25;;
83018;SDS011;72834;40.104;18.336;2024-02-26T07:48:08;4.80;;;1.75;;
83018;SDS011;72834;40.104;18.336;2024-02-26T07:50:34;7.85;;;1.50;;
83018;SDS011;72834;40.104;18.336;2024-02-26T07:53:00;5.95;;;1.60;;
83018;SDS011;72834;40.104;18.336;2024-02-26T07:55:27;4.00;;;1.40;;
83018;SDS011;72834;40.104;18.336;2024-02-26T07:57:53;6.45;;;1.40;;
83018;SDS011;72834;40.104;18.336;2024-02-26T08:00:19;7.70;;;1.70;;
83018;SDS011;72834;40.104;18.336;2024-02-26T08:02:46;3.63;;;1.50;;
83018;SDS011;72834;40.104;18.336;2024-02-26T08:05:12;13.07;;;1.77;;
83018;SDS011;72834;40.104;18.336;2024-02-26T08:07:38;4.53;;;1.50;;
83018;SDS011;72834;40.104;18.336;2024-02-26T08:10:05;5.05;;;2.50;;
83018;SDS011;72834;40.104;18.336;2024-02-26T08:12:32;7.32;;;2.20;;
83018;SDS011;72834;40.104;18.336;2024-02-26T08:14:59;7.75;;;2.53;;
83018;SDS011;72834;40.104;18.336;2024-02-26T08:17:25;6.45;;;1.63;;
83018;SDS011;72834;40.104;18.336;2024-02-26T08:19:53;3.25;;;1.20;;
83018;SDS011;72834;40.104;18.336;2024-02-26T08:22:19;5.55;;;1.25;;
83018;SDS011;72834;40.104;18.336;2024-02-26T08:24:46;8.20;;;2.35;;
83018;SDS011;72834;40.104;18.336;2024-02-26T08:27:12;3.88;;;1.48;;
83018;SDS011;72834;40.104;18.336;2024-02-26T08:29:38;4.00;;;1.50;;
83018;SDS011;72834;40.104;18.336;2024-02-26T08:32:05;2.95;;;1.17;;
83018;SDS011;72834;40.104;18.336;2024-02-26T08:34:32;2.78;;;1.55;;
83018;SDS011;72834;40.104;18.336;2024-02-26T08:36:59;5.90;;;1.83;;
83018;SDS011;72834;40.104;18.336;2024-02-26T08:39:25;4.13;;;1.40;;
83018;SDS011;72834;40.104;18.336;2024-02-26T08:41:51;4.55;;;1.55;;
83018;SDS011;72834;40.104;18.336;2024-02-26T08:44:17;4.00;;;1.20;;
83018;SDS011;72834;40.104;18.336;2024-02-26T08:46:44;7.53;;;1.85;;
83018;SDS011;72834;40.104;18.336;2024-02-26T08:49:11;4.72;;;1.75;;
83018;SDS011;72834;40.104;18.336;2024-02-26T08:51:41;7.43;;;1.55;;
83018;SDS011;72834;40.104;18.336;2024-02-26T08:54:09;5.32;;;1.88;;
83018;SDS011;72834;40.104;18.336;2024-02-26T08:56:35;6.35;;;1.80;;
83018;SDS011;72834;40.104;18.336;2024-02-26T08:59:02;5.28;;;1.58;;
83018;SDS011;72834;40.104;18.336;2024-02-26T09:01:29;6.30;;;1.67;;
83018;SDS011;72834;40.104;18.336;2024-02-26T09:03:57;2.92;;;1.27;;
83018;SDS011;72834;40.104;18.336;2024-02-26T09:06:23;6.13;;;1.60;;
83018;SDS011;72834;40.104;18.336;2024-02-26T09:08:49;6.32;;;1.60;;
83018;SDS011;72834;40.104;18.336;2024-02-26T09:11:15;5.57;;;1.80;;
83018;SDS011;72834;40.104;18.336;2024-02-26T09:13:42;4.80;;;1.40;;
83018;SDS011;72834;40.104;18.336;2024-02-26T09:16:08;4.28;;;1.48;;
83018;SDS011;72834;40.104;18.336;2024-02-26T09:18:35;3.58;;;1.08;;
83018;SDS011;72834;40.104;18.336;2024-02-26T09:21:04;7.18;;;1.77;;
83018;SDS011;72834;40.104;18.336;2024-02-26T09:23:31;2.63;;;1.48;;
83018;SDS011;72834;40.104;18.336;2024-02-26T09:25:58;2.90;;;1.10;;
83018;SDS011;72834;40.104;18.336;2024-02-26T09:28:24;9.02;;;1.60;;
83018;SDS011;72834;40.104;18.336;2024-02-26T09:30:50;2.75;;;1.10;;
83018;SDS011;72834;40.104;18.336;2024-02-26T09:33:17;4.25;;;1.45;;
83018;SDS011;72834;40.104;18.336;2024-02-26T09:35:43;6.78;;;1.48;;
83018;SDS011;72834;40.104;18.336;2024-02-26T09:38:09;3.95;;;1.40;;
83018;SDS011;72834;40.104;18.336;2024-02-26T09:40:35;4.25;;;1.52;;
83018;SDS011;72834;40.104;18.336;2024-02-26T09:43:03;2.67;;;1.40;;
83018;SDS011;72834;40.104;18.336;2024-02-26T09:45:31;5.65;;;1.25;;
83018;SDS011;72834;40.104;18.336;2024-02-26T09:48:00;3.55;;;1.38;;
83018;SDS011;72834;40.104;18.336;2024-02-26T09:50:30;3.55;;;1.20;;
83018;SDS011;72834;40.104;18.336;2024-02-26T09:52:56;2.70;;;1.10;;
83018;SDS011;72834;40.104;18.336;2024-02-26T09:55:25;4.07;;;1.45;;
83018;SDS011;72834;40.104;18.336;2024-02-26T09:57:51;5.38;;;1.65;;
83018;SDS011;72834;40.104;18.336;2024-02-26T10:00:18;5.88;;;1.40;;
83018;SDS011;72834;40.104;18.336;2024-02-26T10:02:46;5.88;;;1.52;;
83018;SDS011;72834;40.104;18.336;2024-02-26T10:05:14;8.63;;;1.70;;
83018;SDS011;72834;40.104;18.336;2024-02-26T10:07:44;4.15;;;2.30;;
83018;SDS011;72834;40.104;18.336;2024-02-26T10:10:11;7.63;;;2.10;;
83018;SDS011;72834;40.104;18.336;2024-02-26T10:12:42;4.32;;;1.52;;
83018;SDS011;72834;40.104;18.336;2024-02-26T10:15:08;7.15;;;1.83;;
83018;SDS011;72834;40.104;18.336;2024-02-26T10:17:35;3.95;;;1.63;;
83018;SDS011;72834;40.104;18.336;2024-02-26T10:20:12;6.47;;;1.90;;
83018;SDS011;72834;40.104;18.336;2024-02-26T10:22:40;4.20;;;1.55;;
83018;SDS011;72834;40.104;18.336;2024-02-26T10:25:07;8.48;;;1.80;;
83018;SDS011;72834;40.104;18.336;2024-02-26T10:27:34;2.47;;;1.50;;
83018;SDS011;72834;40.104;18.336;2024-02-26T10:30:04;4.28;;;1.60;;
83018;SDS011;72834;40.104;18.336;2024-02-26T10:32:41;5.45;;;1.58;;
83018;SDS011;72834;40.104;18.336;2024-02-26T10:35:09;6.00;;;1.58;;
83018;SDS011;72834;40.104;18.336;2024-02-26T10:37:36;6.82;;;1.63;;
83018;SDS011;72834;40.104;18.336;2024-02-26T10:40:02;6.63;;;1.80;;
83018;SDS011;72834;40.104;18.336;2024-02-26T10:42:30;5.43;;;1.73;;
83018;SDS011;72834;40.104;18.336;2024-02-26T10:44:57;6.22;;;1.80;;
83018;SDS011;72834;40.104;18.336;2024-02-26T10:47:24;3.42;;;1.38;;
83018;SDS011;72834;40.104;18.336;2024-02-26T10:49:50;5.50;;;1.90;;
83018;SDS011;72834;40.104;18.336;2024-02-26T10:52:17;5.45;;;1.58;;
83018;SDS011;72834;40.104;18.336;2024-02-26T10:54:46;4.35;;;1.63;;
83018;SDS011;72834;40.104;18.336;2024-02-26T10:57:15;5.85;;;1.70;;
83018;SDS011;72834;40.104;18.336;2024-02-26T10:59:43;2.65;;;1.08;;
83018;SDS011;72834;40.104;18.336;2024-02-26T11:02:10;2.95;;;1.30;;
83018;SDS011;72834;40.104;18.336;2024-02-26T11:04:38;5.85;;;2.15;;
83018;SDS011;72834;40.104;18.336;2024-02-26T11:07:04;12.27;;;1.65;;
83018;SDS011;72834;40.104;18.336;2024-02-26T11:09:33;7.45;;;1.50;;
83018;SDS011;72834;40.104;18.336;2024-02-26T11:12:01;5.05;;;1.88;;
83018;SDS011;72834;40.104;18.336;2024-02-26T11:14:33;4.43;;;1.42;;
83018;SDS011;72834;40.104;18.336;2024-02-26T11:17:00;5.78;;;1.30;;
83018;SDS011;72834;40.104;18.336;2024-02-26T11:19:26;2.33;;;1.27;;
83018;SDS011;72834;40.104;18.336;2024-02-26T11:21:55;2.97;;;1.17;;
83018;SDS011;72834;40.104;18.336;2024-02-26T11:24:21;6.43;;;2.47;;
83018;SDS011;72834;40.104;18.336;2024-02-26T11:26:52;3.40;;;1.13;;
83018;SDS011;72834;40.104;18.336;2024-02-26T11:29:25;2.67;;;1.20;;
83018;SDS011;72834;40.104;18.336;2024-02-26T11:31:59;5.72;;;1.33;;
83018;SDS011;72834;40.104;18.336;2024-02-26T11:34:26;5.10;;;1.60;;
83018;SDS011;72834;40.104;18.336;2024-02-26T11:36:53;3.45;;;1.08;;
83018;SDS011;72834;40.104;18.336;2024-02-26T11:39:20;5.35;;;1.40;;
83018;SDS011;72834;40.104;18.336;2024-02-26T11:41:46;9.68;;;2.15;;
83018;SDS011;72834;40.104;18.336;2024-02-26T11:44:12;9.65;;;3.33;;
83018;SDS011;72834;40.104;18.336;2024-02-26T11:51:54;4.50;;;1.55;;
83018;SDS011;72834;40.104;18.336;2024-02-26T12:05:17;4.28;;;1.33;;
83018;SDS011;72834;40.104;18.336;2024-02-26T12:10:25;4.57;;;1.70;;
83018;SDS011;72834;40.104;18.336;2024-02-26T12:13:00;2.35;;;0.75;;
83018;SDS011;72834;40.104;18.336;2024-02-26T12:15:38;3.65;;;1.30;;
83018;SDS011;72834;40.104;18.336;2024-02-26T12:18:10;4.10;;;1.92;;
83018;SDS011;72834;40.104;18.336;2024-02-26T12:20:41;4.53;;;1.75;;
83018;SDS011;72834;40.104;18.336;2024-02-26T12:23:10;7.35;;;3.08;;
83018;SDS011;72834;40.104;18.336;2024-02-26T12:25:43;2.30;;;1.13;;
83018;SDS011;72834;40.104;18.336;2024-02-26T12:28:10;6.32;;;1.58;;
83018;SDS011;72834;40.104;18.336;2024-02-26T12:30:36;3.40;;;1.20;;
83018;SDS011;72834;40.104;18.336;2024-02-26T12:33:02;5.45;;;1.52;;
83018;SDS011;72834;40.104;18.336;2024-02-26T12:35:29;2.75;;;0.95;;
83018;SDS011;72834;40.104;18.336;2024-02-26T12:37:57;4.18;;;1.30;;
83018;SDS011;72834;40.104;18.336;2024-02-26T12:40:24;3.15;;;1.23;;
83018;SDS011;72834;40.104;18.336;2024-02-26T12:42:53;7.78;;;1.67;;
83018;SDS011;72834;40.104;18.336;2024-02-26T12:45:20;3.83;;;1.17;;
83018;SDS011;72834;40.104;18.336;2024-02-26T12:47:46;5.70;;;1.55;;
83018;SDS011;72834;40.104;18.336;2024-02-26T12:50:15;2.72;;;1.20;;
83018;SDS011;72834;40.104;18.336;2024-02-26T12:52:44;3.42;;;1.25;;
83018;SDS011;72834;40.104;18.336;2024-02-26T12:55:16;3.33;;;1.70;;
83018;SDS011;72834;40.104;18.336;2024-02-26T12:57:45;4.10;;;1.58;;
83018;SDS011;72834;40.104;18.336;2024-02-26T13:00:21;2.90;;;1.10;;
83018;SDS011;72834;40.104;18.336;2024-02-26T13:02:50;7.10;;;2.33;;
83018;SDS011;72834;40.104;18.336;2024-02-26T13:05:17;2.90;;;1.25;;
83018;SDS011;72834;40.104;18.336;2024-02-26T13:07:45;4.43;;;1.27;;
83018;SDS011;72834;40.104;18.336;2024-02-26T13:10:15;3.97;;;1.40;;
83018;SDS011;72834;40.104;18.336;2024-02-26T13:12:44;2.65;;;1.00;;
83018;SDS011;72834;40.104;18.336;2024-02-26T13:15:16;4.38;;;1.27;;
83018;SDS011;72834;40.104;18.336;2024-02-26T13:17:43;4.65;;;1.10;;
83018;SDS011;72834;40.104;18.336;2024-02-26T13:20:10;4.25;;;1.25;;
83018;SDS011;72834;40.104;18.336;2024-02-26T13:22:37;3.45;;;1.48;;
83018;SDS011;72834;40.104;18.336;2024-02-26T13:25:04;7.45;;;1.38;;
83018;SDS011;72834;40.104;18.336;2024-02-26T13:27:33;4.78;;;1.50;;
83018;SDS011;72834;40.104;18.336;2024-02-26T13:30:09;4.25;;;1.42;;
83018;SDS011;72834;40.104;18.336;2024-02-26T13:32:37;3.10;;;1.42;;
83018;SDS011;72834;40.104;18.336;2024-02-26T13:35:08;3.60;;;1.45;;
83018;SDS011;72834;40.104;18.336;2024-02-26T13:37:38;6.45;;;1.88;;
83018;SDS011;72834;40.104;18.336;2024-02-26T13:40:10;3.88;;;1.45;;
83018;SDS011;72834;40.104;18.336;2024-02-26T13:42:42;3.13;;;1.67;;
83018;SDS011;72834;40.104;18.336;2024-02-26T13:45:15;3.90;;;1.30;;
83018;SDS011;72834;40.104;18.336;2024-02-26T13:47:42;2.33;;;1.02;;
83018;SDS011;72834;40.104;18.336;2024-02-26T13:50:10;4.45;;;1.40;;
83018;SDS011;72834;40.104;18.336;2024-02-26T13:52:36;2.72;;;1.10;;
83018;SDS011;72834;40.104;18.336;2024-02-26T13:55:02;7.70;;;1.92;;
83018;SDS011;72834;40.104;18.336;2024-02-26T13:57:29;9.63;;;3.17;;
83018;SDS011;72834;40.104;18.336;2024-02-26T13:59:55;6.63;;;1.50;;
83018;SDS011;72834;40.104;18.336;2024-02-26T14:02:22;5.05;;;1.80;;
83018;SDS011;72834;40.104;18.336;2024-02-26T14:04:48;5.55;;;1.55;;
83018;SDS011;72834;40.104;18.336;2024-02-26T14:07:14;8.18;;;1.83;;
83018;SDS011;72834;40.104;18.336;2024-02-26T14:09:42;2.45;;;1.35;;
83018;SDS011;72834;40.104;18.336;2024-02-26T14:12:10;4.03;;;1.63;;
83018;SDS011;72834;40.104;18.336;2024-02-26T14:14:37;4.70;;;2.33;;
83018;SDS011;72834;40.104;18.336;2024-02-26T14:17:05;7.40;;;1.92;;
83018;SDS011;72834;40.104;18.336;2024-02-26T14:19:31;4.63;;;1.42;;
83018;SDS011;72834;40.104;18.336;2024-02-26T14:21:57;3.30;;;1.52;;
83018;SDS011;72834;40.104;18.336;2024-02-26T14:24:24;4.25;;;1.65;;
83018;SDS011;72834;40.104;18.336;2024-02-26T14:26:50;4.75;;;1.85;;
83018;SDS011;72834;40.104;18.336;2024-02-26T14:29:16;4.38;;;1.77;;
83018;SDS011;72834;40.104;18.336;2024-02-26T14:31:43;3.08;;;1.35;;
83018;SDS011;72834;40.104;18.336;2024-02-26T14:34:09;6.13;;;1.90;;
83018;SDS011;72834;40.104;18.336;2024-02-26T14:36:37;4.80;;;2.13;;
83018;SDS011;72834;40.104;18.336;2024-02-26T14:39:12;4.72;;;1.85;;
83018;SDS011;72834;40.104;18.336;2024-02-26T14:41:39;4.20;;;1.83;;
83018;SDS011;72834;40.104;18.336;2024-02-26T14:44:06;4.82;;;2.15;;
83018;SDS011;72834;40.104;18.336;2024-02-26T14:46:32;4.90;;;1.27;;
83018;SDS011;72834;40.104;18.336;2024-02-26T14:48:58;4.63;;;1.77;;
83018;SDS011;72834;40.104;18.336;2024-02-26T14:51:24;3.00;;;1.50;;
83018;SDS011;72834;40.104;18.336;2024-02-26T14:53:51;4.93;;;1.58;;